Time;durP1;ratioP1;P1;durP2;ratioP2;P2;SDS_P1;SDS_P2;PMS_P1;PMS_P2;Temp;Humidity;BMP_temperature;BMP_pressure;BME280_temperature;BME280_humidity;BME280_pressure;Samples;Min_cycle;Max_cycle;Signal;HPM_P1;HPM_P2
2023/04/16 00:02:17;;;;;;;57.55;19.80;;;7.90;99.90;;;;;;5045465;28;20067;-74
2023/04/16 00:04:43;;;;;;;57.33;19.40;;;7.90;99.90;;;;;;5053251;28;20107;-74
2023/04/16 00:07:08;;;;;;;59.60;20.53;;;7.80;99.90;;;;;;5045718;28;20040;-74
2023/04/16 00:09:34;;;;;;;65.73;21.43;;;7.80;99.90;;;;;;5030919;28;20048;-74
2023/04/16 00:12:00;;;;;;;57.23;19.97;;;7.80;99.90;;;;;;5029107;28;20045;-74
2023/04/16 00:14:26;;;;;;;54.53;19.93;;;7.80;99.90;;;;;;5029135;28;20056;-74
2023/04/16 00:16:52;;;;;;;49.07;18.47;;;7.80;99.90;;;;;;5029085;28;20048;-74
2023/04/16 00:19:17;;;;;;;56.17;20.50;;;7.80;99.90;;;;;;5038473;28;20089;-74
2023/04/16 00:21:43;;;;;;;51.97;18.37;;;7.80;99.90;;;;;;5027357;28;20051;-74
2023/04/16 00:24:09;;;;;;;52.60;19.13;;;7.80;99.90;;;;;;5022923;28;20060;-74
2023/04/16 00:26:35;;;;;;;55.53;19.67;;;7.80;99.90;;;;;;5023593;28;20067;-74
2023/04/16 00:29:01;;;;;;;62.93;20.67;;;7.80;99.90;;;;;;5047867;28;20078;-74
2023/04/16 00:31:31;;;;;;;66.23;21.13;;;7.80;99.90;;;;;;5028970;28;20132;-74
2023/04/16 00:33:58;;;;;;;65.78;21.92;;;7.80;99.90;;;;;;5048371;28;20288;-74
2023/04/16 00:36:24;;;;;;;60.97;20.45;;;7.80;99.90;;;;;;5039931;28;20072;-74
2023/04/16 00:38:50;;;;;;;52.08;18.60;;;7.80;99.90;;;;;;5028856;28;20048;-74
2023/04/16 00:41:16;;;;;;;47.93;17.97;;;7.80;99.90;;;;;;5046621;28;20037;-74
2023/04/16 00:43:42;;;;;;;56.35;19.17;;;7.80;99.90;;;;;;5029370;28;20051;-74
2023/04/16 00:46:08;;;;;;;47.47;17.97;;;7.80;99.90;;;;;;5044796;28;20029;-74
2023/04/16 00:48:36;;;;;;;50.63;17.40;;;7.80;99.90;;;;;;5021389;28;20098;-74
2023/04/16 00:51:07;;;;;;;53.10;16.80;;;7.80;99.90;;;;;;5030884;28;20116;-74
2023/04/16 00:53:33;;;;;;;46.45;17.45;;;7.80;99.90;;;;;;5033019;28;20045;-74
2023/04/16 00:56:01;;;;;;;48.28;17.27;;;7.80;99.90;;;;;;5048152;28;20094;-74
2023/04/16 00:58:28;;;;;;;49.28;17.40;;;7.80;99.90;;;;;;5018038;28;20041;-74
2023/04/16 01:00:54;;;;;;;50.10;16.85;;;7.80;99.90;;;;;;5030459;28;20066;-74
2023/04/16 01:03:19;;;;;;;45.23;17.20;;;7.90;99.90;;;;;;5025107;28;20097;-74
2023/04/16 01:05:48;;;;;;;47.97;17.80;;;7.90;99.90;;;;;;5040300;28;20538;-74
2023/04/16 01:08:20;;;;;;;50.67;18.40;;;7.90;99.90;;;;;;5031850;28;20747;-74
2023/04/16 01:10:46;;;;;;;43.13;17.48;;;7.90;99.90;;;;;;5034984;28;20401;-74
2023/04/16 01:13:12;;;;;;;46.97;17.83;;;7.90;99.90;;;;;;5049661;28;20033;-74
2023/04/16 01:15:38;;;;;;;59.67;18.53;;;7.90;99.90;;;;;;5047406;28;20570;-74
2023/04/16 01:18:17;;;;;;;51.80;17.77;;;7.90;99.90;;;;;;5032189;28;20063;-74
2023/04/16 01:20:43;;;;;;;45.08;18.92;;;7.90;99.90;;;;;;5027783;28;20416;-74
2023/04/16 01:23:10;;;;;;;45.58;19.38;;;7.90;99.90;;;;;;5048204;28;20045;-74
2023/04/16 01:25:36;;;;;;;51.15;20.00;;;7.90;99.90;;;;;;5042838;28;20041;-74
2023/04/16 01:28:02;;;;;;;51.37;21.33;;;7.90;99.90;;;;;;5026258;28;20128;-74
2023/04/16 01:30:27;;;;;;;45.67;19.57;;;7.90;99.90;;;;;;5050027;28;20489;-74
2023/04/16 01:32:53;;;;;;;51.30;21.03;;;7.90;99.90;;;;;;5024088;28;20045;-74
2023/04/16 01:35:19;;;;;;;50.93;22.17;;;8.00;99.90;;;;;;5032968;28;20033;-74
2023/04/16 01:37:45;;;;;;;55.87;20.87;;;7.90;99.90;;;;;;5047379;28;20047;-74
2023/04/16 01:40:11;;;;;;;55.92;21.27;;;7.90;99.90;;;;;;5042835;28;20147;-74
2023/04/16 01:42:37;;;;;;;56.67;20.70;;;7.90;99.90;;;;;;5028927;28;20041;-74
2023/04/16 01:45:04;;;;;;;51.42;21.75;;;8.00;99.90;;;;;;5023137;28;20095;-74
2023/04/16 01:47:30;;;;;;;56.40;21.27;;;8.00;99.90;;;;;;5047158;28;20123;-74
2023/04/16 01:49:55;;;;;;;55.60;21.90;;;7.90;99.90;;;;;;5028702;28;20528;-74
2023/04/16 01:52:21;;;;;;;53.80;22.80;;;8.00;99.90;;;;;;5032425;28;20111;-74
2023/04/16 01:54:47;;;;;;;53.23;23.57;;;8.00;99.90;;;;;;5045018;28;20072;-74
2023/04/16 01:57:12;;;;;;;58.43;22.83;;;8.00;99.90;;;;;;5045520;28;20040;-74
2023/04/16 01:59:38;;;;;;;71.87;25.37;;;7.90;99.90;;;;;;5029692;28;20033;-74
2023/04/16 02:02:13;;;;;;;69.60;24.30;;;8.00;99.90;;;;;;5034137;28;20063;-74
2023/04/16 02:04:40;;;;;;;69.95;25.58;;;8.00;99.90;;;;;;5050462;28;20029;-74
2023/04/16 02:07:07;;;;;;;68.72;24.98;;;8.00;99.90;;;;;;5048200;28;20040;-74
2023/04/16 02:09:40;;;;;;;73.53;26.25;;;8.00;99.90;;;;;;5024743;28;20052;-74
2023/04/16 02:12:06;;;;;;;67.90;24.75;;;8.00;99.90;;;;;;5032112;28;20048;-74
2023/04/16 02:14:32;;;;;;;62.80;26.00;;;7.90;99.90;;;;;;5029159;28;20072;-74
2023/04/16 02:16:59;;;;;;;71.43;25.25;;;7.90;99.90;;;;;;5044395;28;20053;-74
2023/04/16 02:19:25;;;;;;;67.32;25.38;;;7.90;99.90;;;;;;5039940;28;20057;-74
2023/04/16 02:21:51;;;;;;;67.25;24.35;;;7.90;99.90;;;;;;5035837;28;20441;-74
2023/04/16 02:24:17;;;;;;;72.60;24.45;;;8.00;99.90;;;;;;5029256;28;20045;-74
2023/04/16 02:26:43;;;;;;;75.77;23.17;;;8.00;99.90;;;;;;5034970;28;20060;-74
2023/04/16 02:29:10;;;;;;;65.93;24.75;;;8.00;99.90;;;;;;5041151;28;20520;-74
2023/04/16 02:31:36;;;;;;;65.68;24.73;;;8.00;99.90;;;;;;5046138;28;20475;-74
2023/04/16 02:34:02;;;;;;;83.35;25.83;;;8.00;99.90;;;;;;5028852;28;20082;-74
2023/04/16 02:36:28;;;;;;;72.70;25.23;;;8.00;99.90;;;;;;5019053;28;20545;-74
2023/04/16 02:38:54;;;;;;;80.17;25.17;;;8.00;99.90;;;;;;5026757;28;20045;-74
2023/04/16 02:41:20;;;;;;;74.30;24.67;;;7.90;99.90;;;;;;5028423;28;20081;-74
2023/04/16 02:43:46;;;;;;;82.10;25.83;;;7.90;99.90;;;;;;5037210;28;20163;-74
2023/04/16 02:46:11;;;;;;;72.83;25.13;;;7.90;99.90;;;;;;5029047;28;20041;-74
2023/04/16 02:48:38;;;;;;;62.27;25.57;;;7.90;99.90;;;;;;5020573;28;20068;-74
2023/04/16 02:51:03;;;;;;;62.67;23.92;;;7.90;99.90;;;;;;5030307;28;20472;-74
2023/04/16 02:53:29;;;;;;;70.07;25.17;;;8.00;99.90;;;;;;5042108;28;20044;-74
2023/04/16 02:55:55;;;;;;;70.30;26.17;;;8.00;99.90;;;;;;5026708;28;20396;-74
2023/04/16 02:58:23;;;;;;;70.20;25.17;;;8.00;99.90;;;;;;5014382;28;20688;-74
2023/04/16 03:00:49;;;;;;;77.05;25.83;;;8.00;99.90;;;;;;5043530;28;20044;-74
2023/04/16 03:03:15;;;;;;;70.93;25.85;;;8.00;99.90;;;;;;5048487;28;20029;-74
2023/04/16 03:05:41;;;;;;;66.47;24.87;;;7.90;99.90;;;;;;5046930;28;20033;-74
2023/04/16 03:08:07;;;;;;;70.67;25.67;;;8.00;99.90;;;;;;5031001;28;20037;-74
2023/04/16 03:10:34;;;;;;;75.15;25.42;;;7.90;99.90;;;;;;5031225;28;20033;-74
2023/04/16 03:12:59;;;;;;;68.47;25.25;;;7.90;99.90;;;;;;5046599;28;20045;-74
2023/04/16 03:15:26;;;;;;;69.17;25.57;;;8.00;99.90;;;;;;5046522;28;20111;-74
2023/04/16 03:17:52;;;;;;;68.97;25.63;;;8.00;99.90;;;;;;5031977;28;20671;-74
2023/04/16 03:20:18;;;;;;;74.25;25.83;;;8.00;99.90;;;;;;5047108;28;20047;-74
2023/04/16 03:22:45;;;;;;;65.18;25.77;;;8.00;99.90;;;;;;5027055;28;20033;-74
2023/04/16 03:25:10;;;;;;;65.53;24.48;;;8.00;99.90;;;;;;5045329;28;20034;-74
2023/04/16 03:27:38;;;;;;;71.97;25.27;;;7.90;99.90;;;;;;5048649;28;20091;-74
2023/04/16 03:30:05;;;;;;;64.32;25.23;;;8.00;99.90;;;;;;5037606;28;20059;-74
2023/04/16 03:32:31;;;;;;;64.15;25.88;;;8.00;99.90;;;;;;5039632;28;20076;-74
2023/04/16 03:34:56;;;;;;;60.37;24.80;;;8.00;99.90;;;;;;5028774;28;20077;-74
2023/04/16 03:37:22;;;;;;;57.87;24.93;;;8.00;99.90;;;;;;5044515;28;20044;-74
2023/04/16 03:39:48;;;;;;;66.37;27.13;;;8.00;99.90;;;;;;5030024;28;20038;-74
2023/04/16 03:42:13;;;;;;;67.17;27.53;;;8.00;99.90;;;;;;5041611;28;20076;-74
2023/04/16 03:44:39;;;;;;;70.53;28.53;;;8.00;99.90;;;;;;5044675;28;20064;-74
2023/04/16 03:47:05;;;;;;;85.77;28.17;;;8.00;99.90;;;;;;5031081;28;20045;-74
2023/04/16 03:49:30;;;;;;;86.20;29.40;;;8.00;99.90;;;;;;5030648;28;20041;-74
2023/04/16 03:51:56;;;;;;;80.67;29.53;;;8.00;99.90;;;;;;5030657;28;20052;-74
2023/04/16 03:54:22;;;;;;;72.93;29.33;;;8.00;99.90;;;;;;5030223;28;20047;-74
2023/04/16 03:56:47;;;;;;;87.33;31.40;;;8.00;99.90;;;;;;5050637;28;20044;-74
2023/04/16 03:59:13;;;;;;;85.80;31.67;;;7.90;99.90;;;;;;5041007;28;20507;-74
2023/04/16 04:01:39;;;;;;;81.43;29.83;;;7.90;99.90;;;;;;5041954;28;20037;-74
2023/04/16 04:04:05;;;;;;;80.65;28.05;;;7.90;99.90;;;;;;5046534;28;20045;-74
2023/04/16 04:06:31;;;;;;;86.97;30.10;;;8.00;99.90;;;;;;5036498;28;20033;-74
2023/04/16 04:08:57;;;;;;;85.85;30.17;;;8.00;99.90;;;;;;5033936;28;20033;-74
2023/04/16 04:11:23;;;;;;;92.95;29.70;;;8.00;99.90;;;;;;5050152;28;20731;-74
2023/04/16 04:13:49;;;;;;;79.00;30.37;;;8.00;99.90;;;;;;5021310;28;20163;-74
2023/04/16 04:16:15;;;;;;;85.77;28.70;;;8.00;99.90;;;;;;5043328;28;20049;-74
2023/04/16 04:18:40;;;;;;;83.17;28.50;;;8.00;99.90;;;;;;5027941;28;20053;-74
2023/04/16 04:21:07;;;;;;;79.50;29.37;;;8.00;99.90;;;;;;5020152;28;20371;-74
2023/04/16 04:23:34;;;;;;;78.93;28.73;;;8.00;99.90;;;;;;5033208;28;20440;-74
2023/04/16 04:26:02;;;;;;;74.50;26.70;;;8.00;99.90;;;;;;5038348;28;20040;-74
2023/04/16 04:28:29;;;;;;;73.40;26.70;;;8.00;99.90;;;;;;5032300;28;20082;-74
2023/04/16 04:30:56;;;;;;;77.32;27.60;;;8.00;99.90;;;;;;5033274;28;20049;-74
2023/04/16 04:33:22;;;;;;;76.13;25.33;;;8.00;99.90;;;;;;5022741;28;20102;-74
2023/04/16 04:35:48;;;;;;;82.27;24.90;;;8.00;99.90;;;;;;5024299;28;20060;-74
2023/04/16 04:38:13;;;;;;;77.93;27.30;;;8.00;99.90;;;;;;5032304;28;20048;-74
2023/04/16 04:40:39;;;;;;;73.87;27.07;;;8.00;99.90;;;;;;5041768;28;20096;-74
2023/04/16 04:43:05;;;;;;;83.57;26.73;;;8.00;99.90;;;;;;5029064;28;20045;-74
2023/04/16 04:45:30;;;;;;;88.27;27.67;;;8.00;99.90;;;;;;5030715;28;20073;-74
2023/04/16 04:47:56;;;;;;;90.10;26.50;;;8.00;99.90;;;;;;5048666;28;20029;-74
2023/04/16 04:50:22;;;;;;;78.60;28.17;;;8.00;99.90;;;;;;5023784;28;20105;-74
2023/04/16 04:52:47;;;;;;;85.90;26.57;;;7.90;99.90;;;;;;5037799;28;20051;-74
2023/04/16 04:55:14;;;;;;;81.37;26.60;;;7.90;99.90;;;;;;5049018;28;20063;-74
2023/04/16 04:57:41;;;;;;;86.32;26.67;;;7.90;99.90;;;;;;5044647;28;20044;-74
2023/04/16 05:00:07;;;;;;;74.75;24.30;;;7.90;99.90;;;;;;5033065;28;20056;-74
2023/04/16 05:02:33;;;;;;;74.85;24.80;;;7.90;99.90;;;;;;5049333;28;20047;-74
2023/04/16 05:04:59;;;;;;;80.17;25.13;;;7.90;99.90;;;;;;5020454;28;20616;-74
2023/04/16 05:07:24;;;;;;;76.40;23.37;;;7.90;99.90;;;;;;5041240;28;20053;-74
2023/04/16 05:09:50;;;;;;;71.63;23.00;;;8.00;99.90;;;;;;5031580;28;20049;-74
2023/04/16 05:12:16;;;;;;;61.28;21.65;;;8.00;99.90;;;;;;5040880;28;20045;-74
2023/04/16 05:14:42;;;;;;;59.57;22.13;;;8.00;99.90;;;;;;5022226;28;20044;-74
2023/04/16 05:17:09;;;;;;;66.73;20.83;;;7.90;99.90;;;;;;5041624;28;20071;-74
2023/04/16 05:19:35;;;;;;;65.70;21.50;;;7.90;99.90;;;;;;5021950;28;20489;-74
2023/04/16 05:22:01;;;;;;;65.72;20.33;;;8.00;99.90;;;;;;5036981;28;20102;-74
2023/04/16 05:24:28;;;;;;;57.70;20.53;;;8.00;99.90;;;;;;5046323;28;20599;-74
2023/04/16 05:26:53;;;;;;;65.93;19.85;;;8.00;99.90;;;;;;5029296;28;20037;-74
2023/04/16 05:29:19;;;;;;;69.77;20.03;;;8.00;99.90;;;;;;5027792;28;20051;-74
2023/04/16 05:31:45;;;;;;;75.77;19.53;;;8.00;99.90;;;;;;5025925;28;20095;-74
2023/04/16 05:34:11;;;;;;;61.27;18.47;;;8.00;99.90;;;;;;5025253;28;20048;-74
2023/04/16 05:36:36;;;;;;;61.90;18.33;;;8.00;99.90;;;;;;5019314;28;20391;-74
2023/04/16 05:39:02;;;;;;;65.57;18.40;;;8.10;99.90;;;;;;5045713;28;20128;-74
2023/04/16 05:41:28;;;;;;;61.27;20.50;;;8.10;99.90;;;;;;5045492;28;20048;-74
2023/04/16 05:43:53;;;;;;;61.67;19.07;;;8.10;99.90;;;;;;5048289;28;20048;-74
2023/04/16 05:46:19;;;;;;;56.33;19.47;;;8.10;99.90;;;;;;5031836;28;20094;-74
2023/04/16 05:48:45;;;;;;;64.23;19.67;;;8.10;99.90;;;;;;5042116;28;20047;-74
2023/04/16 05:51:11;;;;;;;61.70;20.67;;;8.10;99.90;;;;;;5058546;28;20037;-74
2023/04/16 05:53:36;;;;;;;58.20;19.80;;;8.10;99.90;;;;;;5028880;28;20045;-74
2023/04/16 05:56:02;;;;;;;59.83;18.93;;;8.20;99.90;;;;;;5031456;28;20119;-74
2023/04/16 05:58:28;;;;;;;57.03;20.43;;;8.20;99.90;;;;;;5031939;28;20098;-74
2023/04/16 06:00:53;;;;;;;64.03;21.23;;;8.20;99.90;;;;;;5047640;28;20041;-74
2023/04/16 06:03:19;;;;;;;71.47;22.57;;;8.20;99.90;;;;;;5047821;28;20037;-74
2023/04/16 06:05:45;;;;;;;63.80;22.60;;;8.20;99.90;;;;;;5038950;28;20052;-74
2023/04/16 06:08:10;;;;;;;63.40;21.60;;;8.20;99.90;;;;;;5030741;28;20111;-74
2023/04/16 06:10:36;;;;;;;71.50;23.17;;;8.30;99.90;;;;;;5022315;28;20045;-74
2023/04/16 06:13:02;;;;;;;73.70;23.47;;;8.30;99.90;;;;;;5035927;28;20044;-74
2023/04/16 06:15:28;;;;;;;67.60;22.70;;;8.30;99.90;;;;;;5038912;28;20044;-74
2023/04/16 06:17:55;;;;;;;61.87;23.17;;;8.30;99.90;;;;;;5027747;28;20196;-74
2023/04/16 06:20:20;;;;;;;68.72;22.98;;;8.30;99.90;;;;;;5020091;28;20092;-74
2023/04/16 06:22:46;;;;;;;62.42;21.63;;;8.30;99.90;;;;;;5027639;28;20114;-74
2023/04/16 06:25:12;;;;;;;55.53;20.40;;;8.30;99.90;;;;;;5028011;28;20083;-74
2023/04/16 06:27:38;;;;;;;60.60;21.13;;;8.30;99.90;;;;;;5021854;28;20505;-74
2023/04/16 06:30:05;;;;;;;51.47;19.40;;;8.30;99.90;;;;;;5029831;28;20055;-74
2023/04/16 06:32:30;;;;;;;56.58;19.63;;;8.40;99.90;;;;;;5047492;28;20037;-74
2023/04/16 06:34:57;;;;;;;57.23;20.57;;;8.40;99.90;;;;;;5027315;28;20137;-74
2023/04/16 06:37:23;;;;;;;54.78;20.10;;;8.40;99.90;;;;;;5048341;28;20045;-74
2023/04/16 06:39:48;;;;;;;53.17;20.20;;;8.40;99.90;;;;;;5019965;28;20098;-74
2023/04/16 06:42:14;;;;;;;50.43;19.77;;;8.50;99.90;;;;;;5031250;28;20048;-74
2023/04/16 06:44:40;;;;;;;64.33;20.27;;;8.50;99.90;;;;;;5041028;28;20458;-74
2023/04/16 06:47:06;;;;;;;57.30;19.90;;;8.50;99.90;;;;;;5047798;28;20079;-74
2023/04/16 06:49:32;;;;;;;63.35;20.77;;;8.50;99.90;;;;;;5037087;28;20101;-75
2023/04/16 06:51:57;;;;;;;57.37;19.43;;;8.50;99.90;;;;;;5021232;28;21110;-75
2023/04/16 06:54:23;;;;;;;64.13;20.60;;;8.60;99.90;;;;;;5039343;28;20052;-75
2023/04/16 06:56:49;;;;;;;60.93;20.00;;;8.60;99.90;;;;;;5031116;28;20478;-75
2023/04/16 06:59:15;;;;;;;61.47;20.63;;;8.60;99.90;;;;;;5026830;28;20587;-75
2023/04/16 07:01:40;;;;;;;58.30;20.57;;;8.60;99.90;;;;;;5044683;28;20072;-74
2023/04/16 07:04:06;;;;;;;64.33;18.77;;;8.60;99.90;;;;;;5050179;28;20041;-74
2023/04/16 07:06:32;;;;;;;56.70;21.13;;;8.60;99.90;;;;;;5051560;28;20132;-74
2023/04/16 07:08:57;;;;;;;63.27;20.43;;;8.60;99.90;;;;;;5051159;28;20642;-74
2023/04/16 07:11:24;;;;;;;52.97;19.60;;;8.70;99.90;;;;;;5051456;28;20049;-75
2023/04/16 07:13:52;;;;;;;54.55;19.90;;;8.70;99.90;;;;;;5049166;28;20438;-74
2023/04/16 07:16:17;;;;;;;52.85;19.70;;;8.70;99.90;;;;;;5048689;28;20055;-74
2023/04/16 07:18:43;;;;;;;52.37;20.73;;;8.70;99.90;;;;;;5051934;28;20052;-74
2023/04/16 07:21:09;;;;;;;50.63;18.97;;;8.80;99.90;;;;;;5048056;28;20029;-76
2023/04/16 07:23:35;;;;;;;54.50;19.30;;;8.80;99.90;;;;;;5037484;28;20032;-74
2023/04/16 07:26:01;;;;;;;46.47;18.13;;;8.90;99.90;;;;;;5026325;28;20025;-74
2023/04/16 07:28:26;;;;;;;47.37;17.67;;;8.90;99.90;;;;;;5036228;28;20037;-75
2023/04/16 07:30:52;;;;;;;41.03;17.03;;;8.90;99.90;;;;;;5043806;28;20112;-74
2023/04/16 07:33:17;;;;;;;44.17;16.13;;;8.90;99.90;;;;;;5041320;28;20055;-75
2023/04/16 07:35:44;;;;;;;35.53;16.00;;;8.90;99.90;;;;;;5032220;28;20477;-75
2023/04/16 07:38:10;;;;;;;42.00;17.13;;;8.90;99.90;;;;;;5048562;28;20148;-75
2023/04/16 07:40:35;;;;;;;54.50;16.93;;;8.90;99.90;;;;;;5016202;28;20483;-75
2023/04/16 07:43:01;;;;;;;46.37;16.50;;;9.00;99.90;;;;;;5023053;28;20492;-75
2023/04/16 07:45:27;;;;;;;45.00;16.87;;;9.00;99.90;;;;;;5035391;28;20116;-75
2023/04/16 07:47:53;;;;;;;49.83;16.50;;;9.10;99.90;;;;;;5033578;28;20041;-76
2023/04/16 07:50:18;;;;;;;47.53;17.10;;;9.10;99.90;;;;;;5035250;28;20560;-75
2023/04/16 07:52:45;;;;;;;41.07;15.77;;;9.10;99.90;;;;;;5049558;28;20049;-76
2023/04/16 07:55:11;;;;;;;49.28;15.55;;;9.20;99.90;;;;;;5028528;28;20404;-75
2023/04/16 07:57:36;;;;;;;44.17;16.13;;;9.20;99.90;;;;;;5048153;28;20116;-75
2023/04/16 08:00:06;;;;;;;46.77;16.97;;;9.30;99.90;;;;;;5044981;28;20052;-75
2023/04/16 08:02:32;;;;;;;39.47;15.93;;;9.30;99.90;;;;;;5050336;28;20116;-75
2023/04/16 08:04:58;;;;;;;46.70;15.30;;;9.40;99.90;;;;;;5051218;28;20088;-75
2023/04/16 08:07:24;;;;;;;37.53;14.95;;;9.40;99.90;;;;;;5027514;28;20284;-75
2023/04/16 08:09:51;;;;;;;31.90;15.00;;;9.40;99.90;;;;;;5042199;28;20118;-76
2023/04/16 08:12:17;;;;;;;35.38;15.40;;;9.40;99.90;;;;;;5024039;28;20072;-76
2023/04/16 08:14:44;;;;;;;41.70;16.48;;;9.40;99.90;;;;;;5027788;28;20103;-75
2023/04/16 08:17:10;;;;;;;34.53;14.68;;;9.40;99.90;;;;;;5048290;28;20124;-76
2023/04/16 08:19:36;;;;;;;33.65;15.10;;;9.40;99.90;;;;;;5050039;28;20437;-75
2023/04/16 08:22:02;;;;;;;36.53;14.63;;;9.40;99.90;;;;;;5028387;28;20041;-75
2023/04/16 08:24:27;;;;;;;33.70;14.97;;;9.50;99.90;;;;;;5050507;28;20120;-74
2023/04/16 08:26:53;;;;;;;37.07;14.40;;;9.50;99.90;;;;;;5025689;28;20119;-76
2023/04/16 08:29:19;;;;;;;36.97;15.00;;;9.40;99.90;;;;;;5027842;28;20116;-76
2023/04/16 08:31:46;;;;;;;37.35;15.80;;;9.40;99.90;;;;;;5040412;28;20053;-75
2023/04/16 08:34:11;;;;;;;39.78;15.73;;;9.50;99.90;;;;;;5037464;28;20051;-76
2023/04/16 08:36:37;;;;;;;43.03;16.30;;;9.50;99.90;;;;;;5024376;28;20046;-76
2023/04/16 08:39:03;;;;;;;39.40;15.73;;;9.50;99.90;;;;;;5026736;28;20037;-76
2023/04/16 08:41:35;;;;;;;45.47;16.30;;;9.50;99.90;;;;;;5041567;28;20037;-75
2023/04/16 08:44:07;;;;;;;39.75;15.98;;;9.50;99.90;;;;;;5027825;28;20037;-75
2023/04/16 08:46:36;;;;;;;47.15;16.85;;;9.60;99.90;;;;;;5041068;28;20060;-76
2023/04/16 08:49:06;;;;;;;42.80;15.90;;;9.60;99.90;;;;;;5040711;28;20482;-75
2023/04/16 08:51:35;;;;;;;51.63;15.93;;;9.60;99.90;;;;;;5039460;28;20360;-76
2023/04/16 08:54:10;;;;;;;42.35;16.50;;;9.60;99.90;;;;;;5027222;28;20523;-75
2023/04/16 08:56:39;;;;;;;42.17;16.35;;;9.60;99.90;;;;;;5052641;28;20043;-75
2023/04/16 08:59:08;;;;;;;43.83;16.30;;;9.60;99.90;;;;;;5023873;28;20040;-75
2023/04/16 09:01:35;;;;;;;40.17;16.23;;;9.60;99.90;;;;;;5052439;28;20288;-75
2023/04/16 09:04:01;;;;;;;37.40;14.63;;;9.60;99.90;;;;;;5047490;28;20770;-75
2023/04/16 09:06:28;;;;;;;46.00;15.80;;;9.60;99.90;;;;;;5047956;28;20286;-68
2023/04/16 09:08:54;;;;;;;44.03;14.63;;;9.60;99.90;;;;;;5030721;28;20111;-69
2023/04/16 09:11:20;;;;;;;43.00;16.10;;;9.70;99.90;;;;;;5046172;28;20041;-75
2023/04/16 09:13:46;;;;;;;35.13;14.95;;;9.80;99.90;;;;;;5048864;28;20318;-76
2023/04/16 09:16:13;;;;;;;42.37;15.27;;;9.90;99.90;;;;;;5049446;28;20105;-75
2023/04/16 09:18:40;;;;;;;40.47;15.50;;;10.00;99.90;;;;;;5040939;28;20306;-75
2023/04/16 09:21:09;;;;;;;48.38;16.58;;;10.10;99.90;;;;;;5022396;28;20375;-75
2023/04/16 09:23:37;;;;;;;34.57;16.20;;;10.30;99.90;;;;;;5021247;28;20405;-75
2023/04/16 09:26:04;;;;;;;41.50;15.47;;;10.40;99.90;;;;;;5027089;28;20375;-75
2023/04/16 09:28:43;;;;;;;42.77;15.67;;;10.50;99.90;;;;;;5038402;28;20286;-74
2023/04/16 09:31:13;;;;;;;43.27;15.03;;;10.60;99.90;;;;;;5031566;28;20715;-75
2023/04/16 09:33:39;;;;;;;44.70;14.93;;;10.70;99.90;;;;;;5027687;28;20655;-75
2023/04/16 09:36:08;;;;;;;40.97;15.80;;;10.70;99.90;;;;;;5043983;28;20360;-75
2023/04/16 09:38:51;;;;;;;45.97;16.30;;;10.80;99.90;;;;;;5025630;28;20279;-75
2023/04/16 09:41:18;;;;;;;33.83;14.03;;;10.70;99.90;;;;;;5020535;28;21203;-76
2023/04/16 09:43:56;;;;;;;39.10;15.70;;;10.80;99.90;;;;;;5026691;28;20275;-75
2023/04/16 09:46:29;;;;;;;43.03;14.40;;;10.90;99.90;;;;;;5023975;28;21237;-75
2023/04/16 09:48:55;;;;;;;37.67;14.93;;;10.90;99.90;;;;;;5048392;28;20291;-75
2023/04/16 09:51:20;;;;;;;44.33;15.33;;;10.90;99.90;;;;;;5026717;28;20349;-75
2023/04/16 09:53:50;;;;;;;35.13;14.47;;;11.10;99.90;;;;;;5041763;28;20041;-75
2023/04/16 09:56:16;;;;;;;38.67;14.73;;;11.30;99.90;;;;;;5047419;28;20036;-75
2023/04/16 09:58:41;;;;;;;37.97;15.10;;;11.40;99.90;;;;;;5048400;28;20296;-75
2023/04/16 10:01:10;;;;;;;29.17;14.90;;;11.40;99.90;;;;;;5022100;28;20148;-76
2023/04/16 10:03:38;;;;;;;34.27;15.00;;;11.50;99.90;;;;;;5038395;28;20044;-76
2023/04/16 10:06:13;;;;;;;34.03;15.00;;;11.50;99.90;;;;;;5043719;28;20292;-75
2023/04/16 10:08:52;;;;;;;35.88;13.95;;;11.50;99.90;;;;;;5031633;28;20426;-76
2023/04/16 10:11:19;;;;;;;28.53;13.67;;;11.50;99.90;;;;;;5025393;28;20076;-75
2023/04/16 10:13:45;;;;;;;28.63;13.93;;;11.50;99.90;;;;;;5041244;28;20295;-75
2023/04/16 10:16:11;;;;;;;35.23;14.67;;;11.50;99.90;;;;;;5040061;28;20279;-75
2023/04/16 10:18:39;;;;;;;29.57;14.33;;;11.60;99.90;;;;;;5028631;28;20076;-75
2023/04/16 10:21:05;;;;;;;36.77;14.73;;;11.60;99.90;;;;;;5046822;28;20292;-76
2023/04/16 10:23:32;;;;;;;35.40;14.27;;;11.60;99.90;;;;;;5026225;28;20429;-76
2023/04/16 10:25:59;;;;;;;37.67;15.17;;;11.70;99.90;;;;;;5036717;28;20306;-76
2023/04/16 10:28:27;;;;;;;37.50;15.70;;;11.70;99.90;;;;;;5036075;28;20280;-75
2023/04/16 10:30:55;;;;;;;39.10;15.23;;;11.70;99.90;;;;;;5013550;28;20280;-75
2023/04/16 10:33:26;;;;;;;35.57;15.03;;;11.60;99.90;;;;;;5035044;28;20766;-75
2023/04/16 10:36:06;;;;;;;35.93;14.37;;;11.50;99.90;;;;;;5044696;28;20822;-75
2023/04/16 10:38:32;;;;;;;32.83;14.07;;;11.60;99.90;;;;;;5033395;28;20284;-76
2023/04/16 10:41:05;;;;;;;38.30;15.63;;;11.60;99.90;;;;;;5019923;28;20280;-76
2023/04/16 10:43:38;;;;;;;34.27;14.90;;;11.70;99.90;;;;;;5046696;28;20029;-75
2023/04/16 10:46:19;;;;;;;42.20;15.47;;;11.80;99.90;;;;;;5032034;28;20345;-75
2023/04/16 10:48:46;;;;;;;32.97;15.90;;;11.90;99.90;;;;;;5031370;28;20314;-75
2023/04/16 10:51:31;;;;;;;38.87;15.17;;;11.90;99.90;;;;;;5053414;28;20856;-75
2023/04/16 10:54:27;;;;;;;35.05;16.33;;;11.80;99.90;;;;;;5032053;28;20291;-75
2023/04/16 10:56:55;;;;;;;37.70;15.32;;;11.70;99.90;;;;;;5030669;28;20051;-75
2023/04/16 10:59:22;;;;;;;35.23;16.73;;;11.60;99.90;;;;;;5051590;28;20048;-75
2023/04/16 11:01:53;;;;;;;29.70;15.43;;;11.60;99.90;;;;;;5031794;28;20367;-75
2023/04/16 11:04:18;;;;;;;37.57;16.00;;;11.70;99.90;;;;;;5047790;28;20298;-74
2023/04/16 11:07:04;;;;;;;35.37;15.23;;;11.70;99.90;;;;;;5041941;28;20510;-75
2023/04/16 11:09:58;;;;;;;36.20;15.97;;;11.70;99.90;;;;;;5034548;28;20064;-75
2023/04/16 11:12:37;;;;;;;30.80;14.90;;;11.80;99.90;;;;;;5049975;28;20318;-76
2023/04/16 11:15:08;;;;;;;28.17;15.50;;;11.90;99.90;;;;;;5049904;28;20283;-75
2023/04/16 11:17:46;;;;;;;30.50;15.90;;;12.00;99.90;;;;;;5050805;28;20362;-75
2023/04/16 11:20:19;;;;;;;33.87;16.23;;;12.00;99.90;;;;;;5035764;28;20332;-74
2023/04/16 11:22:45;;;;;;;31.87;15.57;;;12.00;99.90;;;;;;5049668;28;20694;-75
2023/04/16 11:25:11;;;;;;;34.27;17.17;;;12.10;99.90;;;;;;5047246;28;20279;-75
2023/04/16 11:27:37;;;;;;;32.87;16.70;;;12.20;99.90;;;;;;5031260;28;20612;-75
2023/04/16 11:30:08;;;;;;;27.90;15.53;;;12.20;99.90;;;;;;5034782;28;20279;-75
2023/04/16 11:32:36;;;;;;;33.87;15.90;;;12.30;99.90;;;;;;5029367;28;20542;-76
2023/04/16 11:35:04;;;;;;;32.27;15.43;;;12.20;99.90;;;;;;5036042;28;20294;-75
2023/04/16 11:37:37;;;;;;;34.13;15.50;;;12.20;99.90;;;;;;5031758;28;20292;-76
2023/04/16 11:40:08;;;;;;;30.57;15.87;;;12.20;99.90;;;;;;5030201;28;20331;-75
2023/04/16 11:42:42;;;;;;;30.30;15.23;;;12.30;99.90;;;;;;5037318;28;20389;-76
2023/04/16 11:45:09;;;;;;;35.57;16.17;;;12.30;99.90;;;;;;5036007;28;20282;-76
2023/04/16 11:47:54;;;;;;;31.23;15.80;;;12.20;99.90;;;;;;5030666;28;20287;-75
2023/04/16 11:50:24;;;;;;;31.23;15.30;;;12.20;99.90;;;;;;5046380;28;20367;-76
2023/04/16 11:52:52;;;;;;;25.73;15.47;;;12.10;99.90;;;;;;5030867;28;20341;-76
2023/04/16 11:55:18;;;;;;;28.60;14.80;;;12.00;99.90;;;;;;5025045;28;20276;-75
2023/04/16 11:57:44;;;;;;;24.53;14.23;;;12.00;99.90;;;;;;5053638;28;20336;-75
2023/04/16 12:00:12;;;;;;;27.17;15.23;;;12.00;99.90;;;;;;5051807;28;20705;-76
2023/04/16 12:02:42;;;;;;;29.93;14.13;;;12.10;99.90;;;;;;5029233;28;20295;-75
2023/04/16 12:05:29;;;;;;;32.83;16.00;;;12.10;99.90;;;;;;5020292;28;20768;-75
2023/04/16 12:07:55;;;;;;;27.40;16.00;;;12.30;99.90;;;;;;5041124;28;20369;-74
2023/04/16 12:10:21;;;;;;;25.57;15.60;;;12.40;99.90;;;;;;5027569;28;20307;-76
2023/04/16 12:12:47;;;;;;;27.60;14.00;;;12.50;99.90;;;;;;5027006;28;20314;-76
2023/04/16 12:15:13;;;;;;;27.47;14.63;;;12.70;99.90;;;;;;5046253;28;20363;-76
2023/04/16 12:17:38;;;;;;;25.07;14.07;;;12.80;99.90;;;;;;5028918;28;20036;-75
2023/04/16 12:20:12;;;;;;;25.37;14.73;;;12.90;99.90;;;;;;5023031;28;20064;-76
2023/04/16 12:22:46;;;;;;;29.02;15.25;;;13.00;99.90;;;;;;5021495;28;20046;-75
2023/04/16 12:25:16;;;;;;;33.27;15.07;;;13.10;99.90;;;;;;5027917;28;20045;-76
2023/04/16 12:27:54;;;;;;;31.23;15.97;;;13.30;99.90;;;;;;5068432;28;20363;-77
2023/04/16 12:30:25;;;;;;;27.63;15.87;;;13.30;99.90;;;;;;5038572;28;20765;-76
2023/04/16 12:33:16;;;;;;;26.50;14.57;;;13.30;99.90;;;;;;5053322;28;20283;-74
2023/04/16 12:35:43;;;;;;;27.83;15.00;;;13.40;99.90;;;;;;5026314;28;20684;-76